createdAt,value
2023-02-11T00:00:50.609Z,95780.80
2023-02-11T00:03:26.046Z,95775.00
2023-02-11T00:05:53.632Z,95773.20
2023-02-11T00:08:21.177Z,95770.00
2023-02-11T00:10:49.070Z,95776.40
2023-02-11T00:13:16.763Z,95772.20
2023-02-11T00:15:44.385Z,95762.60
2023-02-11T00:18:11.906Z,95756.60
2023-02-11T00:20:39.436Z,95755.80
2023-02-11T00:23:07.047Z,95752.20
2023-02-11T00:25:34.716Z,95767.20
2023-02-11T00:28:02.229Z,95769.40
2023-02-11T00:30:30.208Z,95775.20
2023-02-11T00:32:57.764Z,95772.40
2023-02-11T00:35:25.246Z,95775.80
2023-02-11T00:37:52.935Z,95779.40
2023-02-11T00:40:20.564Z,95777.20
2023-02-11T00:42:48.071Z,95769.80
2023-02-11T00:45:15.614Z,95758.80
2023-02-11T00:47:43.389Z,95758.00
2023-02-11T00:50:10.896Z,95760.00
2023-02-11T00:52:38.529Z,95764.80
2023-02-11T00:55:06.089Z,95762.00
2023-02-11T00:57:33.697Z,95757.60
2023-02-11T01:00:01.181Z,95759.80
2023-02-11T01:02:28.966Z,95762.80
2023-02-11T01:04:56.512Z,95763.60
2023-02-11T01:07:24.044Z,95761.80
2023-02-11T01:09:51.916Z,95750.00
2023-02-11T01:12:19.442Z,95746.20
2023-02-11T01:14:46.940Z,95736.60
2023-02-11T01:17:14.769Z,95729.00
2023-02-11T01:19:42.241Z,95725.20
2023-02-11T01:22:09.712Z,95733.20
2023-02-11T01:24:37.398Z,95737.80
2023-02-11T01:27:04.871Z,95730.00
2023-02-11T01:29:32.415Z,95722.40
2023-02-11T01:32:00.294Z,95721.60
2023-02-11T01:34:27.929Z,95718.40
2023-02-11T01:36:58.157Z,95714.00
2023-02-11T01:39:25.962Z,95716.00
2023-02-11T01:41:53.549Z,95710.40
2023-02-11T01:44:21.062Z,95710.60
2023-02-11T01:46:48.632Z,95710.40
2023-02-11T01:49:16.253Z,95703.40
2023-02-11T01:51:43.846Z,95692.40
2023-02-11T01:54:30.309Z,95689.40
2023-02-11T01:57:16.575Z,95687.40
2023-02-11T01:59:44.247Z,95688.00
2023-02-11T02:02:11.789Z,95679.00
2023-02-11T02:04:39.265Z,95686.40
2023-02-11T02:07:07.125Z,95677.20
2023-02-11T02:09:34.705Z,95676.40
2023-02-11T02:12:02.209Z,95669.00
2023-02-11T02:14:29.758Z,95652.00
2023-02-11T02:16:57.274Z,95644.00
2023-02-11T02:19:24.750Z,95627.80
2023-02-11T02:21:52.234Z,95628.00
2023-02-11T02:24:19.851Z,95622.80
2023-02-11T02:26:47.692Z,95612.80
2023-02-11T02:29:15.312Z,95613.40
2023-02-11T02:31:42.993Z,95607.40
2023-02-11T02:34:10.805Z,95598.80
2023-02-11T02:36:38.376Z,95604.40
2023-02-11T02:39:05.870Z,95614.40
2023-02-11T02:41:33.729Z,95623.60
2023-02-11T02:44:01.333Z,95627.80
2023-02-11T02:46:28.949Z,95633.80
2023-02-11T02:48:56.769Z,95632.20
2023-02-11T02:51:24.365Z,95618.40
2023-02-11T02:53:51.869Z,95629.00
2023-02-11T02:56:19.394Z,95629.20
2023-02-11T02:58:47.403Z,95626.00
2023-02-11T03:01:15.172Z,95621.40
2023-02-11T03:03:43.342Z,95616.00
2023-02-11T03:06:11.057Z,95601.60
2023-02-11T03:08:38.544Z,95601.80
2023-02-11T03:11:06.061Z,95600.80
2023-02-11T03:13:34.056Z,95616.00
2023-02-11T03:16:01.649Z,95619.40
2023-02-11T03:18:29.350Z,95614.40
2023-02-11T03:20:57.478Z,95615.20
2023-02-11T03:23:25.026Z,95618.20
2023-02-11T03:25:52.676Z,95615.40
2023-02-11T03:28:20.301Z,95619.20
2023-02-11T03:30:48.051Z,95618.60
2023-02-11T03:33:15.660Z,95620.00
2023-02-11T03:35:43.326Z,95611.80
2023-02-11T03:38:10.900Z,95607.40
2023-02-11T03:40:38.353Z,95609.40
2023-02-11T03:43:06.096Z,95605.60
2023-02-11T03:45:33.685Z,95601.40
2023-02-11T03:48:01.305Z,95600.00
2023-02-11T03:50:28.874Z,95605.00
2023-02-11T03:52:56.868Z,95605.00
2023-02-11T03:55:25.954Z,95605.40
2023-02-11T03:57:53.484Z,95601.40
2023-02-11T04:00:20.975Z,95600.20
2023-02-11T04:02:48.656Z,95593.80
2023-02-11T04:05:16.288Z,95584.60
2023-02-11T04:07:43.798Z,95582.60
2023-02-11T04:10:11.265Z,95567.00
2023-02-11T04:12:38.876Z,95554.80
2023-02-11T04:15:06.348Z,95537.60
2023-02-11T04:17:33.989Z,95529.40
2023-02-11T04:20:01.677Z,95534.40
2023-02-11T04:22:29.176Z,95527.00
2023-02-11T04:24:56.686Z,95518.20
2023-02-11T04:27:24.326Z,95511.00
2023-02-11T04:29:51.854Z,95504.80
2023-02-11T04:32:19.416Z,95510.20
2023-02-11T04:34:47.609Z,95506.60
2023-02-11T04:37:15.079Z,95500.00
2023-02-11T04:39:42.579Z,95487.20
2023-02-11T04:42:10.123Z,95465.40
2023-02-11T04:44:37.725Z,95445.80
2023-02-11T04:47:05.374Z,95464.20
2023-02-11T04:49:32.882Z,95450.40
2023-02-11T04:52:00.416Z,95444.60
2023-02-11T04:54:27.884Z,95443.00
2023-02-11T04:56:55.640Z,95436.00
2023-02-11T04:59:23.198Z,95433.40
2023-02-11T05:01:50.729Z,95437.80
2023-02-11T05:04:18.341Z,95423.80
2023-02-11T05:06:46.050Z,95411.60
2023-02-11T05:09:13.582Z,95401.60
2023-02-11T05:11:41.088Z,95390.00
2023-02-11T05:14:08.579Z,95391.00
2023-02-11T05:16:36.129Z,95396.20
2023-02-11T05:19:03.814Z,95392.20
2023-02-11T05:21:31.300Z,95383.60
2023-02-11T05:23:58.877Z,95382.20
2023-02-11T05:26:26.821Z,95389.40
2023-02-11T05:28:54.441Z,95393.00
2023-02-11T05:31:22.178Z,95397.60
2023-02-11T05:33:49.762Z,95410.00
2023-02-11T05:36:17.305Z,95414.60
2023-02-11T05:38:44.850Z,95405.20
2023-02-11T05:41:12.616Z,95413.60
2023-02-11T05:43:40.220Z,95409.00
2023-02-11T05:46:08.037Z,95397.40
2023-02-11T05:48:35.664Z,95398.00
2023-02-11T05:51:03.134Z,95391.80
2023-02-11T05:53:30.776Z,95388.80
2023-02-11T05:55:58.377Z,95380.60
2023-02-11T05:58:25.871Z,95384.20
2023-02-11T06:00:56.148Z,95385.20
2023-02-11T06:03:23.754Z,95399.00
2023-02-11T06:05:51.553Z,95399.60
2023-02-11T06:08:19.245Z,95417.20
2023-02-11T06:10:46.778Z,95422.20
2023-02-11T06:13:14.348Z,95416.40
2023-02-11T06:15:41.996Z,95407.40
2023-02-11T06:18:09.942Z,95396.60
2023-02-11T06:20:40.778Z,95401.80
2023-02-11T06:23:08.525Z,95396.60
2023-02-11T06:25:36.043Z,95395.60
2023-02-11T06:28:04.000Z,95394.20
2023-02-11T06:30:31.570Z,95391.60
2023-02-11T06:32:59.098Z,95391.00
2023-02-11T06:35:26.778Z,95390.00
2023-02-11T06:37:54.671Z,95374.80
2023-02-11T06:40:22.412Z,95380.60
2023-02-11T06:42:49.950Z,95379.80
2023-02-11T06:45:17.596Z,95375.00
2023-02-11T06:47:45.653Z,95375.00
2023-02-11T06:50:13.233Z,95374.80
2023-02-11T06:52:40.794Z,95362.60
2023-02-11T06:55:08.429Z,95351.40
2023-02-11T06:57:35.924Z,95341.00
2023-02-11T07:00:05.353Z,95337.20
2023-02-11T07:02:33.372Z,95346.60
2023-02-11T07:05:01.191Z,95353.40
2023-02-11T07:07:28.680Z,95356.00
2023-02-11T07:09:56.341Z,95346.60
2023-02-11T07:12:23.877Z,95354.60
2023-02-11T07:14:51.396Z,95340.00
2023-02-11T07:17:18.926Z,95336.20
2023-02-11T07:19:46.465Z,95340.80
2023-02-11T07:22:13.947Z,95336.60
2023-02-11T07:24:41.446Z,95333.20
2023-02-11T07:27:09.045Z,95332.40
2023-02-11T07:29:36.590Z,95328.80
2023-02-11T07:32:04.424Z,95324.60
2023-02-11T07:34:32.198Z,95325.80
2023-02-11T07:36:59.751Z,95336.20
2023-02-11T07:39:27.593Z,95329.20
2023-02-11T07:41:55.278Z,95322.80
2023-02-11T07:44:22.753Z,95318.40
2023-02-11T07:46:50.465Z,95317.40
2023-02-11T07:49:18.308Z,95322.20
2023-02-11T07:51:47.184Z,95329.00
2023-02-11T07:54:14.757Z,95320.80
2023-02-11T07:56:42.284Z,95320.40
2023-02-11T07:59:09.821Z,95317.40
2023-02-11T08:01:37.329Z,95312.80
2023-02-11T08:04:04.992Z,95311.40
2023-02-11T08:06:32.714Z,95307.40
2023-02-11T08:09:00.211Z,95301.00
2023-02-11T08:11:27.699Z,95294.80
2023-02-11T08:13:55.226Z,95292.00
2023-02-11T08:16:22.941Z,95289.40
2023-02-11T08:18:50.507Z,95286.40
2023-02-11T08:21:18.002Z,95290.40
2023-02-11T08:23:45.518Z,95287.80
2023-02-11T08:26:13.275Z,95279.20
2023-02-11T08:28:40.800Z,95275.40
2023-02-11T08:31:08.465Z,95271.80
2023-02-11T08:33:36.157Z,95266.80
2023-02-11T08:36:03.800Z,95254.80
2023-02-11T08:38:31.408Z,95247.40
2023-02-11T08:40:58.865Z,95248.60
2023-02-11T08:43:26.402Z,95246.20
2023-02-11T08:45:54.271Z,95243.60
2023-02-11T08:48:21.860Z,95241.20
2023-02-11T08:50:49.537Z,95238.20
2023-02-11T08:53:17.072Z,95240.00
2023-02-11T08:55:44.550Z,95242.00
2023-02-11T08:58:12.005Z,95245.00
2023-02-11T09:00:39.502Z,95232.00
2023-02-11T09:03:06.955Z,95228.60
2023-02-11T09:05:34.449Z,95225.00
2023-02-11T09:08:01.942Z,95224.80
2023-02-11T09:10:29.390Z,95223.00
2023-02-11T09:12:56.858Z,95223.20
2023-02-11T09:15:24.523Z,95214.40
2023-02-11T09:17:51.985Z,95222.80
2023-02-11T09:20:19.500Z,95217.60
2023-02-11T09:22:47.094Z,95221.60
2023-02-11T09:25:14.570Z,95216.40
2023-02-11T09:27:42.048Z,95217.80
2023-02-11T09:30:09.632Z,95214.60
2023-02-11T09:32:37.159Z,95226.60
2023-02-11T09:35:04.650Z,95227.80
2023-02-11T09:37:32.206Z,95235.20
2023-02-11T09:39:59.664Z,95236.40
2023-02-11T09:42:27.236Z,95242.80
2023-02-11T09:44:54.851Z,95246.60
2023-02-11T09:47:22.369Z,95248.40
2023-02-11T09:49:49.934Z,95245.00
2023-02-11T09:52:17.866Z,95224.00
2023-02-11T09:54:45.369Z,95231.40
2023-02-11T09:57:27.725Z,95231.40
2023-02-11T09:59:56.101Z,95223.80
2023-02-11T10:02:23.614Z,95218.20
2023-02-11T10:04:51.367Z,95227.40
2023-02-11T10:07:18.888Z,95220.00
2023-02-11T10:09:46.364Z,95225.20
2023-02-11T10:12:13.840Z,95231.60
2023-02-11T10:14:41.492Z,95229.40
2023-02-11T10:17:09.077Z,95218.00
2023-02-11T10:19:36.665Z,95198.60
2023-02-11T10:22:04.179Z,95189.80
2023-02-11T10:24:31.646Z,95178.80
2023-02-11T10:26:59.216Z,95181.20
2023-02-11T10:29:26.940Z,95175.60
2023-02-11T10:31:56.568Z,95167.80
2023-02-11T10:34:25.950Z,95164.60
2023-02-11T10:36:53.641Z,95167.40
2023-02-11T10:39:21.257Z,95163.00
2023-02-11T10:41:48.707Z,95164.20
2023-02-11T10:44:16.329Z,95162.60
2023-02-11T10:46:43.926Z,95159.00
2023-02-11T10:49:11.680Z,95165.60
2023-02-11T10:51:39.258Z,95168.00
2023-02-11T10:54:08.292Z,95167.00
2023-02-11T10:56:35.764Z,95164.80
2023-02-11T10:59:03.555Z,95170.60
2023-02-11T11:01:31.049Z,95162.40
2023-02-11T11:04:00.043Z,95151.00
2023-02-11T11:06:27.693Z,95138.20
2023-02-11T11:08:55.320Z,95132.00
2023-02-11T11:11:22.892Z,95126.40
2023-02-11T11:13:50.444Z,95116.60
2023-02-11T11:16:18.247Z,95106.80
2023-02-11T11:18:45.815Z,95111.00
2023-02-11T11:21:13.438Z,95105.40
2023-02-11T11:23:41.037Z,95106.20
2023-02-11T11:26:08.561Z,95104.00
2023-02-11T11:28:38.837Z,95095.40
2023-02-11T11:31:06.665Z,95097.00
2023-02-11T11:33:34.390Z,95089.60
2023-02-11T11:36:02.089Z,95086.40
2023-02-11T11:38:29.560Z,95087.40
2023-02-11T11:40:57.037Z,95085.00
2023-02-11T11:43:24.703Z,95078.40
2023-02-11T11:45:52.193Z,95071.40
2023-02-11T11:48:19.947Z,95060.20
2023-02-11T11:50:47.642Z,95053.40
2023-02-11T11:53:15.444Z,95050.60
2023-02-11T11:55:43.231Z,95039.40
2023-02-11T11:58:10.887Z,95035.40
2023-02-11T12:00:38.374Z,95024.60
2023-02-11T12:03:06.042Z,95013.60
2023-02-11T12:05:33.696Z,95009.40
2023-02-11T12:08:02.043Z,95013.20
2023-02-11T12:10:29.515Z,95016.60
2023-02-11T12:12:57.105Z,95017.60
2023-02-11T12:15:24.791Z,95017.20
2023-02-11T12:17:52.396Z,95024.80
2023-02-11T12:20:19.931Z,95029.80
2023-02-11T12:22:47.456Z,95028.80
2023-02-11T12:25:15.016Z,95030.40
2023-02-11T12:27:42.627Z,95032.40
2023-02-11T12:30:10.166Z,95037.60
2023-02-11T12:32:37.752Z,95038.80
2023-02-11T12:35:05.341Z,95036.40
2023-02-11T12:37:32.857Z,95043.00
2023-02-11T12:40:00.328Z,95048.60
2023-02-11T12:42:46.636Z,95049.80
2023-02-11T12:45:14.591Z,95054.20
2023-02-11T12:47:42.375Z,95062.00
2023-02-11T12:50:10.016Z,95072.20
2023-02-11T12:52:37.536Z,95063.80
2023-02-11T12:55:06.035Z,95061.60
2023-02-11T12:57:33.884Z,95084.20
2023-02-11T13:00:01.363Z,95089.20
2023-02-11T13:02:29.175Z,95092.00
2023-02-11T13:04:57.017Z,95090.40
2023-02-11T13:07:24.577Z,95097.40
2023-02-11T13:09:52.031Z,95105.40
2023-02-11T13:12:38.518Z,95098.00
2023-02-11T13:15:06.240Z,95093.40
2023-02-11T13:17:34.351Z,95090.80
2023-02-11T13:20:01.923Z,95104.80
2023-02-11T13:22:29.450Z,95103.80
2023-02-11T13:24:57.026Z,95101.00
2023-02-11T13:27:24.639Z,95091.40
2023-02-11T13:29:52.104Z,95091.80
2023-02-11T13:32:19.695Z,95088.60
2023-02-11T13:34:47.450Z,95085.20
2023-02-11T13:37:15.218Z,95079.60
2023-02-11T13:39:42.980Z,95067.00
2023-02-11T13:42:10.721Z,95056.40
2023-02-11T13:44:38.508Z,95049.00
2023-02-11T13:47:06.382Z,95031.60
2023-02-11T13:49:34.165Z,95025.40
2023-02-11T13:52:01.939Z,95026.20
2023-02-11T13:54:29.493Z,95024.20
2023-02-11T13:56:57.045Z,95022.20
2023-02-11T13:59:27.707Z,95024.40
2023-02-11T14:02:14.401Z,95029.00
2023-02-11T14:05:00.728Z,95029.40
2023-02-11T14:07:47.200Z,95024.60
2023-02-11T14:10:14.648Z,95024.20
2023-02-11T14:12:42.522Z,95036.00
2023-02-11T14:15:10.320Z,95039.00
2023-02-11T14:17:38.103Z,95037.20
2023-02-11T14:20:05.788Z,95029.60
2023-02-11T14:22:33.449Z,95027.40
2023-02-11T14:25:01.274Z,95012.60
2023-02-11T14:27:28.837Z,95007.60
2023-02-11T14:29:56.470Z,94984.20
2023-02-11T14:32:24.408Z,94981.60
2023-02-11T14:34:52.101Z,94976.80
2023-02-11T14:37:19.606Z,94960.80
2023-02-11T14:39:47.152Z,94951.60
2023-02-11T14:42:14.644Z,94925.20
2023-02-11T14:44:42.136Z,94921.40
2023-02-11T14:47:09.795Z,94933.20
2023-02-11T14:49:37.320Z,94946.40
2023-02-11T14:52:04.977Z,94968.00
2023-02-11T14:54:32.604Z,94977.40
2023-02-11T14:57:00.081Z,94987.20
2023-02-11T14:59:27.760Z,94989.80
2023-02-11T15:01:55.995Z,94992.20
2023-02-11T15:04:23.722Z,94999.00
2023-02-11T15:06:51.479Z,95002.60
2023-02-11T15:09:19.000Z,95005.40
2023-02-11T15:11:46.731Z,95003.20
2023-02-11T15:14:14.243Z,95017.20
2023-02-11T15:16:41.737Z,95022.20
2023-02-11T15:19:09.258Z,95025.40
2023-02-11T15:21:37.123Z,95032.60
2023-02-11T15:24:06.260Z,95037.80
2023-02-11T15:26:34.116Z,95045.40
2023-02-11T15:29:02.026Z,95044.00
2023-02-11T15:31:32.514Z,95047.40
2023-02-11T15:34:02.446Z,95052.80
2023-02-11T15:36:33.083Z,95060.00
2023-02-11T15:39:00.572Z,95057.40
2023-02-11T15:41:28.478Z,95051.80
2023-02-11T15:43:56.268Z,95048.80
2023-02-11T15:46:24.110Z,95042.80
2023-02-11T15:48:51.809Z,95042.20
2023-02-11T15:51:20.990Z,95040.20
2023-02-11T15:53:48.479Z,95041.60
2023-02-11T15:56:16.064Z,95038.40
2023-02-11T15:58:43.633Z,95047.60
2023-02-11T16:01:11.213Z,95055.00
2023-02-11T16:03:38.960Z,95054.60
2023-02-11T16:06:06.599Z,95057.80
2023-02-11T16:08:35.445Z,95065.60
2023-02-11T16:11:03.518Z,95070.00
2023-02-11T16:13:33.794Z,95079.40
2023-02-11T16:16:02.645Z,95071.40
2023-02-11T16:18:37.673Z,95068.40
2023-02-11T16:21:06.337Z,95069.20
2023-02-11T16:23:33.862Z,95064.20
2023-02-11T16:26:01.748Z,95061.20
2023-02-11T16:28:29.795Z,95062.00
2023-02-11T16:30:59.312Z,95062.00
2023-02-11T16:33:29.050Z,95076.00
2023-02-11T16:35:58.018Z,95076.80
2023-02-11T16:38:25.784Z,95076.40
2023-02-11T16:40:53.843Z,95075.60
2023-02-11T16:43:21.597Z,95067.80
2023-02-11T16:45:49.590Z,95071.60
2023-02-11T16:48:18.364Z,95074.20
2023-02-11T16:50:46.685Z,95074.80
2023-02-11T16:53:14.905Z,95081.60
2023-02-11T16:55:42.681Z,95089.00
2023-02-11T16:58:10.260Z,95086.80
2023-02-11T17:00:37.892Z,95086.80
2023-02-11T17:03:05.683Z,95089.00
2023-02-11T17:05:45.760Z,95093.80
2023-02-11T17:08:20.920Z,95094.80
2023-02-11T17:10:48.841Z,95088.20
2023-02-11T17:13:16.686Z,95095.80
2023-02-11T17:15:44.445Z,95088.80
2023-02-11T17:18:11.960Z,95086.00
2023-02-11T17:20:39.666Z,95088.20
2023-02-11T17:23:07.409Z,95088.20
2023-02-11T17:25:37.442Z,95095.20
2023-02-11T17:28:05.189Z,95089.20
2023-02-11T17:30:33.120Z,95093.80
2023-02-11T17:33:00.872Z,95097.60
2023-02-11T17:35:28.468Z,95100.00
2023-02-11T17:37:56.470Z,95102.00
2023-02-11T17:40:24.395Z,95105.80
2023-02-11T17:42:51.904Z,95107.60
2023-02-11T17:45:22.183Z,95112.20
2023-02-11T17:47:50.025Z,95111.00
2023-02-11T17:50:17.567Z,95111.00
2023-02-11T17:52:45.525Z,95113.00
2023-02-11T17:55:13.417Z,95106.00
2023-02-11T17:57:41.314Z,95104.00
2023-02-11T18:00:09.206Z,95106.40
2023-02-11T18:02:36.993Z,95098.00
2023-02-11T18:05:05.536Z,95096.00
2023-02-11T18:07:33.375Z,95098.20
2023-02-11T18:10:01.093Z,95099.40
2023-02-11T18:12:28.700Z,95096.00
2023-02-11T18:14:58.172Z,95105.00
2023-02-11T18:17:25.836Z,95106.20
2023-02-11T18:19:53.347Z,95103.80
2023-02-11T18:22:21.059Z,95112.60
2023-02-11T18:24:48.714Z,95131.00
2023-02-11T18:27:16.358Z,95127.00
2023-02-11T18:29:44.462Z,95122.60
2023-02-11T18:32:12.234Z,95120.20
2023-02-11T18:34:39.787Z,95113.80
2023-02-11T18:37:07.444Z,95119.40
2023-02-11T18:39:34.922Z,95125.00
2023-02-11T18:42:02.617Z,95131.80
2023-02-11T18:44:30.431Z,95136.40
2023-02-11T18:46:57.975Z,95122.20
2023-02-11T18:49:25.682Z,95124.20
2023-02-11T18:51:53.230Z,95118.60
2023-02-11T18:54:23.746Z,95108.20
2023-02-11T18:56:51.314Z,95104.80
2023-02-11T18:59:19.102Z,95111.60
2023-02-11T19:01:47.158Z,95109.00
2023-02-11T19:04:20.104Z,95111.60
2023-02-11T19:06:47.955Z,95114.00
2023-02-11T19:09:15.836Z,95118.40
2023-02-11T19:11:54.597Z,95109.80
2023-02-11T19:14:22.474Z,95126.00
2023-02-11T19:16:51.452Z,95119.80
2023-02-11T19:19:19.526Z,95114.40
2023-02-11T19:21:47.804Z,95114.20
2023-02-11T19:24:24.409Z,95110.00
2023-02-11T19:26:52.282Z,95112.20
2023-02-11T19:29:20.036Z,95117.40
2023-02-11T19:31:48.121Z,95120.60
2023-02-11T19:34:16.812Z,95116.20
2023-02-11T19:36:44.527Z,95121.00
2023-02-11T19:39:12.507Z,95117.40
2023-02-11T19:41:39.965Z,95123.80
2023-02-11T19:44:08.024Z,95125.60
2023-02-11T19:46:36.067Z,95125.80
2023-02-11T19:49:03.651Z,95122.60
2023-02-11T19:51:32.755Z,95122.20
2023-02-11T19:54:00.470Z,95122.00
2023-02-11T19:56:31.305Z,95127.20
2023-02-11T19:58:58.882Z,95124.80
2023-02-11T20:01:26.490Z,95124.40
2023-02-11T20:03:54.355Z,95126.00
2023-02-11T20:06:23.605Z,95125.40
2023-02-11T20:08:51.452Z,95118.60
2023-02-11T20:11:19.631Z,95113.80
2023-02-11T20:13:47.204Z,95125.80
2023-02-11T20:16:16.990Z,95129.20
2023-02-11T20:18:44.595Z,95123.20
2023-02-11T20:21:12.165Z,95125.40
2023-02-11T20:23:40.717Z,95125.60
2023-02-11T20:26:08.240Z,95129.40
2023-02-11T20:28:36.140Z,95131.80
2023-02-11T20:31:03.942Z,95129.60
2023-02-11T20:33:31.915Z,95132.80
2023-02-11T20:35:59.757Z,95130.60
2023-02-11T20:38:27.340Z,95133.00
2023-02-11T20:40:55.128Z,95129.40
2023-02-11T20:43:22.968Z,95128.40
2023-02-11T20:45:50.814Z,95133.40
2023-02-11T20:48:18.653Z,95134.20
2023-02-11T20:50:48.320Z,95134.80
2023-02-11T20:53:16.027Z,95137.00
2023-02-11T20:55:43.773Z,95135.80
2023-02-11T20:58:11.652Z,95133.20
2023-02-11T21:00:39.860Z,95139.00
2023-02-11T21:03:07.522Z,95135.40
2023-02-11T21:05:36.067Z,95133.80
2023-02-11T21:08:05.779Z,95136.00
2023-02-11T21:10:33.309Z,95135.20
2023-02-11T21:13:03.012Z,95136.40
2023-02-11T21:15:30.641Z,95141.80
2023-02-11T21:17:58.377Z,95147.40
2023-02-11T21:20:25.996Z,95146.40
2023-02-11T21:22:53.762Z,95154.60
2023-02-11T21:25:22.505Z,95152.80
2023-02-11T21:27:50.294Z,95149.20
2023-02-11T21:30:18.276Z,95143.60
2023-02-11T21:32:46.151Z,95148.40
2023-02-11T21:35:14.735Z,95151.60
2023-02-11T21:37:42.363Z,95157.40
2023-02-11T21:40:09.977Z,95157.40
2023-02-11T21:42:37.514Z,95162.20
2023-02-11T21:45:05.136Z,95166.60
2023-02-11T21:47:32.860Z,95164.00
2023-02-11T21:50:00.360Z,95168.20
2023-02-11T21:52:27.941Z,95172.20
2023-02-11T21:54:55.542Z,95172.40
2023-02-11T21:57:23.284Z,95182.60
2023-02-11T21:59:52.949Z,95179.40
2023-02-11T22:02:20.479Z,95183.60
2023-02-11T22:04:48.250Z,95187.00
2023-02-11T22:07:15.957Z,95188.80
2023-02-11T22:09:43.719Z,95182.40
2023-02-11T22:12:11.280Z,95187.20
2023-02-11T22:14:38.930Z,95189.20
2023-02-11T22:17:06.586Z,95190.80
2023-02-11T22:19:34.342Z,95186.00
2023-02-11T22:22:02.190Z,95177.80
2023-02-11T22:24:29.797Z,95178.60
2023-02-11T22:26:57.322Z,95182.80
2023-02-11T22:29:24.858Z,95197.60
2023-02-11T22:31:52.335Z,95194.80
2023-02-11T22:34:20.189Z,95204.60
2023-02-11T22:36:47.853Z,95198.80
2023-02-11T22:39:15.346Z,95196.20
2023-02-11T22:41:42.857Z,95197.20
2023-02-11T22:44:10.417Z,95198.20
2023-02-11T22:46:37.945Z,95201.80
2023-02-11T22:49:05.537Z,95208.60
2023-02-11T22:51:33.170Z,95211.40
2023-02-11T22:54:00.684Z,95209.40
2023-02-11T22:56:28.254Z,95205.60
2023-02-11T22:58:55.801Z,95202.60
2023-02-11T23:01:23.295Z,95207.20
2023-02-11T23:03:50.928Z,95203.40
2023-02-11T23:06:18.549Z,95207.60
2023-02-11T23:08:46.044Z,95204.00
2023-02-11T23:11:13.565Z,95205.00
2023-02-11T23:13:41.115Z,95204.80
2023-02-11T23:16:08.846Z,95206.60
2023-02-11T23:18:36.837Z,95203.60
2023-02-11T23:21:04.767Z,95205.80
2023-02-11T23:23:32.241Z,95201.40
2023-02-11T23:25:59.773Z,95200.60
2023-02-11T23:28:27.360Z,95201.40
2023-02-11T23:30:55.033Z,95200.00
2023-02-11T23:33:22.609Z,95198.40
2023-02-11T23:35:50.398Z,95201.60
2023-02-11T23:38:18.043Z,95204.80
2023-02-11T23:40:45.705Z,95204.80
2023-02-11T23:43:13.295Z,95204.20
2023-02-11T23:45:40.866Z,95207.80
2023-02-11T23:48:08.435Z,95206.20
2023-02-11T23:50:36.122Z,95208.40
2023-02-11T23:53:03.636Z,95211.80
2023-02-11T23:55:31.424Z,95213.00
2023-02-11T23:57:58.992Z,95215.00
